sensor_id;sensor_type;location;lat;lon;timestamp;temperature;humidity
5846;DHT22;2949;50.778;7.094;2023-04-06T00:01:07;1.80;99.90
5846;DHT22;2949;50.778;7.094;2023-04-06T00:03:33;1.70;99.90
5846;DHT22;2949;50.778;7.094;2023-04-06T00:06:03;1.70;99.90
5846;DHT22;2949;50.778;7.094;2023-04-06T00:08:28;1.60;99.90
5846;DHT22;2949;50.778;7.094;2023-04-06T00:10:54;1.60;99.90
5846;DHT22;2949;50.778;7.094;2023-04-06T00:13:20;1.50;99.90
5846;DHT22;2949;50.778;7.094;2023-04-06T00:15:46;1.50;99.90
5846;DHT22;2949;50.778;7.094;2023-04-06T00:18:11;1.50;99.90
5846;DHT22;2949;50.778;7.094;2023-04-06T00:20:37;1.40;99.90
5846;DHT22;2949;50.778;7.094;2023-04-06T00:23:03;1.40;99.90
5846;DHT22;2949;50.778;7.094;2023-04-06T00:25:29;1.40;99.90
5846;DHT22;2949;50.778;7.094;2023-04-06T00:27:54;1.40;99.90
5846;DHT22;2949;50.778;7.094;2023-04-06T00:30:20;1.30;99.90
5846;DHT22;2949;50.778;7.094;2023-04-06T00:32:46;1.20;99.90
5846;DHT22;2949;50.778;7.094;2023-04-06T00:35:11;1.10;99.90
5846;DHT22;2949;50.778;7.094;2023-04-06T00:37:37;1.10;99.90
5846;DHT22;2949;50.778;7.094;2023-04-06T00:40:03;1.00;99.90
5846;DHT22;2949;50.778;7.094;2023-04-06T00:42:29;1.10;99.90
5846;DHT22;2949;50.778;7.094;2023-04-06T00:44:58;1.10;99.90
5846;DHT22;2949;50.778;7.094;2023-04-06T00:47:25;1.00;99.90
5846;DHT22;2949;50.778;7.094;2023-04-06T00:49:52;1.00;99.90
5846;DHT22;2949;50.778;7.094;2023-04-06T00:52:18;1.10;99.90
5846;DHT22;2949;50.778;7.094;2023-04-06T00:54:44;1.10;99.90
5846;DHT22;2949;50.778;7.094;2023-04-06T00:57:13;1.10;99.90
5846;DHT22;2949;50.778;7.094;2023-04-06T00:59:39;1.10;99.90
5846;DHT22;2949;50.778;7.094;2023-04-06T01:02:06;1.10;99.90
5846;DHT22;2949;50.778;7.094;2023-04-06T01:04:33;1.00;99.90
5846;DHT22;2949;50.778;7.094;2023-04-06T01:06:59;0.90;99.90
5846;DHT22;2949;50.778;7.094;2023-04-06T01:09:27;0.80;99.90
5846;DHT22;2949;50.778;7.094;2023-04-06T01:11:53;0.70;99.90
5846;DHT22;2949;50.778;7.094;2023-04-06T01:14:19;0.60;99.90
5846;DHT22;2949;50.778;7.094;2023-04-06T01:16:45;0.50;99.90
5846;DHT22;2949;50.778;7.094;2023-04-06T01:19:11;0.50;99.90
5846;DHT22;2949;50.778;7.094;2023-04-06T01:21:38;0.50;99.90
5846;DHT22;2949;50.778;7.094;2023-04-06T01:24:04;0.50;99.90
5846;DHT22;2949;50.778;7.094;2023-04-06T01:26:30;0.50;99.90
5846;DHT22;2949;50.778;7.094;2023-04-06T01:28:56;0.50;99.90
5846;DHT22;2949;50.778;7.094;2023-04-06T01:31:22;0.50;99.90
5846;DHT22;2949;50.778;7.094;2023-04-06T01:33:49;0.50;99.90
5846;DHT22;2949;50.778;7.094;2023-04-06T01:36:14;0.50;99.90
5846;DHT22;2949;50.778;7.094;2023-04-06T01:38:40;0.60;99.90
5846;DHT22;2949;50.778;7.094;2023-04-06T01:41:07;0.60;99.90
5846;DHT22;2949;50.778;7.094;2023-04-06T01:43:33;0.60;99.90
5846;DHT22;2949;50.778;7.094;2023-04-06T01:45:59;0.60;99.90
5846;DHT22;2949;50.778;7.094;2023-04-06T01:48:25;0.60;99.90
5846;DHT22;2949;50.778;7.094;2023-04-06T01:50:51;0.60;99.90
5846;DHT22;2949;50.778;7.094;2023-04-06T01:53:16;0.60;99.90
5846;DHT22;2949;50.778;7.094;2023-04-06T01:55:42;0.60;99.90
5846;DHT22;2949;50.778;7.094;2023-04-06T01:58:07;0.70;99.90
5846;DHT22;2949;50.778;7.094;2023-04-06T02:00:33;0.70;99.90
5846;DHT22;2949;50.778;7.094;2023-04-06T02:02:58;0.70;99.90
5846;DHT22;2949;50.778;7.094;2023-04-06T02:05:25;0.70;99.90
5846;DHT22;2949;50.778;7.094;2023-04-06T02:07:50;0.50;99.90
5846;DHT22;2949;50.778;7.094;2023-04-06T02:10:17;0.50;99.90
5846;DHT22;2949;50.778;7.094;2023-04-06T02:12:43;0.40;99.90
5846;DHT22;2949;50.778;7.094;2023-04-06T02:15:09;0.40;99.90
5846;DHT22;2949;50.778;7.094;2023-04-06T02:17:34;0.40;99.90
5846;DHT22;2949;50.778;7.094;2023-04-06T02:20:00;0.20;99.90
5846;DHT22;2949;50.778;7.094;2023-04-06T02:22:27;0.10;99.90
5846;DHT22;2949;50.778;7.094;2023-04-06T02:24:52;0.10;99.90
5846;DHT22;2949;50.778;7.094;2023-04-06T02:27:18;0.10;99.90
5846;DHT22;2949;50.778;7.094;2023-04-06T02:29:43;0.10;99.90
5846;DHT22;2949;50.778;7.094;2023-04-06T02:32:09;0.10;99.90
5846;DHT22;2949;50.778;7.094;2023-04-06T02:34:34;0.20;99.90
5846;DHT22;2949;50.778;7.094;2023-04-06T02:37:00;0.10;99.90
5846;DHT22;2949;50.778;7.094;2023-04-06T02:39:26;0.10;99.90
5846;DHT22;2949;50.778;7.094;2023-04-06T02:41:51;0.10;99.90
5846;DHT22;2949;50.778;7.094;2023-04-06T02:44:17;0.00;99.90
5846;DHT22;2949;50.778;7.094;2023-04-06T02:46:42;0.00;99.90
5846;DHT22;2949;50.778;7.094;2023-04-06T02:49:08;-0.10;99.90
5846;DHT22;2949;50.778;7.094;2023-04-06T02:51:34;-0.20;99.90
5846;DHT22;2949;50.778;7.094;2023-04-06T02:53:59;-0.40;99.90
5846;DHT22;2949;50.778;7.094;2023-04-06T02:56:25;-0.50;99.90
5846;DHT22;2949;50.778;7.094;2023-04-06T02:58:51;-0.60;99.90
5846;DHT22;2949;50.778;7.094;2023-04-06T03:01:17;-0.80;99.90
5846;DHT22;2949;50.778;7.094;2023-04-06T03:03:42;-0.80;99.90
5846;DHT22;2949;50.778;7.094;2023-04-06T03:06:08;-0.90;99.90
5846;DHT22;2949;50.778;7.094;2023-04-06T03:08:34;-0.90;99.90
5846;DHT22;2949;50.778;7.094;2023-04-06T03:10:59;-0.90;99.90
5846;DHT22;2949;50.778;7.094;2023-04-06T03:13:25;-0.90;99.90
5846;DHT22;2949;50.778;7.094;2023-04-06T03:15:51;-0.80;99.90
5846;DHT22;2949;50.778;7.094;2023-04-06T03:18:22;-0.80;99.90
5846;DHT22;2949;50.778;7.094;2023-04-06T03:20:48;-0.70;99.90
5846;DHT22;2949;50.778;7.094;2023-04-06T03:23:14;-0.80;99.90
5846;DHT22;2949;50.778;7.094;2023-04-06T03:25:39;-0.70;99.90
5846;DHT22;2949;50.778;7.094;2023-04-06T03:28:05;-0.60;99.90
5846;DHT22;2949;50.778;7.094;2023-04-06T03:30:31;-0.60;99.90
5846;DHT22;2949;50.778;7.094;2023-04-06T03:32:57;-0.40;99.90
5846;DHT22;2949;50.778;7.094;2023-04-06T03:35:22;-0.30;99.90
5846;DHT22;2949;50.778;7.094;2023-04-06T03:37:48;-0.30;99.90
5846;DHT22;2949;50.778;7.094;2023-04-06T03:40:13;-0.20;99.90
5846;DHT22;2949;50.778;7.094;2023-04-06T03:42:39;-0.10;99.90
5846;DHT22;2949;50.778;7.094;2023-04-06T03:45:05;0.00;99.90
5846;DHT22;2949;50.778;7.094;2023-04-06T03:47:31;-0.10;99.90
5846;DHT22;2949;50.778;7.094;2023-04-06T03:49:56;-0.10;99.90
5846;DHT22;2949;50.778;7.094;2023-04-06T03:52:22;-0.30;99.90
5846;DHT22;2949;50.778;7.094;2023-04-06T03:54:48;-0.40;99.90
5846;DHT22;2949;50.778;7.094;2023-04-06T03:57:14;-0.50;99.90
5846;DHT22;2949;50.778;7.094;2023-04-06T03:59:40;-0.70;99.90
5846;DHT22;2949;50.778;7.094;2023-04-06T04:02:05;-0.80;99.90
5846;DHT22;2949;50.778;7.094;2023-04-06T04:04:31;-0.90;99.90
5846;DHT22;2949;50.778;7.094;2023-04-06T04:06:56;-1.00;99.90
5846;DHT22;2949;50.778;7.094;2023-04-06T04:09:22;-1.00;99.90
5846;DHT22;2949;50.778;7.094;2023-04-06T04:11:47;-1.00;99.90
5846;DHT22;2949;50.778;7.094;2023-04-06T04:14:13;-1.00;99.90
5846;DHT22;2949;50.778;7.094;2023-04-06T04:16:39;-0.90;99.90
5846;DHT22;2949;50.778;7.094;2023-04-06T04:19:05;-0.70;99.90
5846;DHT22;2949;50.778;7.094;2023-04-06T04:21:31;-0.50;99.90
5846;DHT22;2949;50.778;7.094;2023-04-06T04:23:56;-0.40;99.90
5846;DHT22;2949;50.778;7.094;2023-04-06T04:26:22;-0.30;99.90
5846;DHT22;2949;50.778;7.094;2023-04-06T04:28:48;-0.20;99.90
5846;DHT22;2949;50.778;7.094;2023-04-06T04:31:13;-0.10;99.90
5846;DHT22;2949;50.778;7.094;2023-04-06T04:33:39;0.00;99.90
5846;DHT22;2949;50.778;7.094;2023-04-06T04:36:04;0.00;99.90
5846;DHT22;2949;50.778;7.094;2023-04-06T04:38:30;0.00;99.90
5846;DHT22;2949;50.778;7.094;2023-04-06T04:40:56;0.00;99.90
5846;DHT22;2949;50.778;7.094;2023-04-06T04:43:21;0.00;99.90
5846;DHT22;2949;50.778;7.094;2023-04-06T04:45:47;0.00;99.90
5846;DHT22;2949;50.778;7.094;2023-04-06T04:48:13;0.00;99.90
5846;DHT22;2949;50.778;7.094;2023-04-06T04:50:38;0.00;99.90
5846;DHT22;2949;50.778;7.094;2023-04-06T04:53:04;0.00;99.90
5846;DHT22;2949;50.778;7.094;2023-04-06T04:55:32;0.00;99.90
5846;DHT22;2949;50.778;7.094;2023-04-06T04:57:58;0.00;99.90
5846;DHT22;2949;50.778;7.094;2023-04-06T05:00:23;0.00;99.90
5846;DHT22;2949;50.778;7.094;2023-04-06T05:02:49;0.00;99.90
5846;DHT22;2949;50.778;7.094;2023-04-06T05:05:15;0.00;99.90
5846;DHT22;2949;50.778;7.094;2023-04-06T05:07:41;0.10;99.90
5846;DHT22;2949;50.778;7.094;2023-04-06T05:10:07;0.10;99.90
5846;DHT22;2949;50.778;7.094;2023-04-06T05:12:32;0.20;99.90
5846;DHT22;2949;50.778;7.094;2023-04-06T05:14:58;0.30;99.90
5846;DHT22;2949;50.778;7.094;2023-04-06T05:17:24;0.30;99.90
5846;DHT22;2949;50.778;7.094;2023-04-06T05:19:49;0.40;99.90
5846;DHT22;2949;50.778;7.094;2023-04-06T05:22:15;0.40;99.90
5846;DHT22;2949;50.778;7.094;2023-04-06T05:24:43;0.50;99.90
5846;DHT22;2949;50.778;7.094;2023-04-06T05:27:09;0.50;99.90
5846;DHT22;2949;50.778;7.094;2023-04-06T05:29:35;0.60;99.90
5846;DHT22;2949;50.778;7.094;2023-04-06T05:32:01;0.70;99.90
5846;DHT22;2949;50.778;7.094;2023-04-06T05:34:27;0.80;99.90
5846;DHT22;2949;50.778;7.094;2023-04-06T05:36:52;0.90;99.90
5846;DHT22;2949;50.778;7.094;2023-04-06T05:39:18;1.00;99.90
5846;DHT22;2949;50.778;7.094;2023-04-06T05:41:43;1.10;99.90
5846;DHT22;2949;50.778;7.094;2023-04-06T05:44:09;1.20;99.90
5846;DHT22;2949;50.778;7.094;2023-04-06T05:46:35;1.20;99.90
5846;DHT22;2949;50.778;7.094;2023-04-06T05:49:00;1.30;99.90
5846;DHT22;2949;50.778;7.094;2023-04-06T05:51:26;1.40;99.90
5846;DHT22;2949;50.778;7.094;2023-04-06T05:53:52;1.40;99.90
5846;DHT22;2949;50.778;7.094;2023-04-06T05:56:18;1.60;99.90
5846;DHT22;2949;50.778;7.094;2023-04-06T05:58:43;1.70;99.90
5846;DHT22;2949;50.778;7.094;2023-04-06T06:01:09;1.80;99.90
5846;DHT22;2949;50.778;7.094;2023-04-06T06:03:35;2.00;99.90
5846;DHT22;2949;50.778;7.094;2023-04-06T06:06:01;2.10;99.90
5846;DHT22;2949;50.778;7.094;2023-04-06T06:08:28;2.20;99.90
5846;DHT22;2949;50.778;7.094;2023-04-06T06:10:53;2.30;99.90
5846;DHT22;2949;50.778;7.094;2023-04-06T06:13:19;2.50;99.90
5846;DHT22;2949;50.778;7.094;2023-04-06T06:15:45;2.60;99.90
5846;DHT22;2949;50.778;7.094;2023-04-06T06:18:11;2.80;99.90
5846;DHT22;2949;50.778;7.094;2023-04-06T06:20:37;3.00;99.90
5846;DHT22;2949;50.778;7.094;2023-04-06T06:23:02;3.20;99.90
5846;DHT22;2949;50.778;7.094;2023-04-06T06:25:28;3.50;99.90
5846;DHT22;2949;50.778;7.094;2023-04-06T06:27:56;3.60;99.90
5846;DHT22;2949;50.778;7.094;2023-04-06T06:30:22;3.80;99.90
5846;DHT22;2949;50.778;7.094;2023-04-06T06:32:47;4.00;99.90
5846;DHT22;2949;50.778;7.094;2023-04-06T06:35:13;4.10;99.90
5846;DHT22;2949;50.778;7.094;2023-04-06T06:37:39;4.40;99.90
5846;DHT22;2949;50.778;7.094;2023-04-06T06:40:05;4.70;99.90
5846;DHT22;2949;50.778;7.094;2023-04-06T06:42:31;4.90;99.90
5846;DHT22;2949;50.778;7.094;2023-04-06T06:44:56;5.20;99.90
5846;DHT22;2949;50.778;7.094;2023-04-06T06:47:22;5.40;99.90
5846;DHT22;2949;50.778;7.094;2023-04-06T06:49:47;5.60;99.90
5846;DHT22;2949;50.778;7.094;2023-04-06T06:52:13;5.90;99.90
5846;DHT22;2949;50.778;7.094;2023-04-06T06:54:38;6.40;99.90
5846;DHT22;2949;50.778;7.094;2023-04-06T06:57:04;8.80;99.90
5846;DHT22;2949;50.778;7.094;2023-04-06T06:59:30;11.50;99.90
5846;DHT22;2949;50.778;7.094;2023-04-06T07:01:55;13.60;95.70
5846;DHT22;2949;50.778;7.094;2023-04-06T07:04:21;15.10;90.20
5846;DHT22;2949;50.778;7.094;2023-04-06T07:06:46;16.40;81.60
5846;DHT22;2949;50.778;7.094;2023-04-06T07:09:12;17.20;73.00
5846;DHT22;2949;50.778;7.094;2023-04-06T07:11:37;17.40;68.10
5846;DHT22;2949;50.778;7.094;2023-04-06T07:14:03;17.20;65.40
5846;DHT22;2949;50.778;7.094;2023-04-06T07:16:28;17.70;64.20
5846;DHT22;2949;50.778;7.094;2023-04-06T07:18:54;17.90;61.80
5846;DHT22;2949;50.778;7.094;2023-04-06T07:21:19;17.80;61.70
5846;DHT22;2949;50.778;7.094;2023-04-06T07:23:45;18.10;60.00
5846;DHT22;2949;50.778;7.094;2023-04-06T07:26:13;18.30;58.30
5846;DHT22;2949;50.778;7.094;2023-04-06T07:28:38;19.00;56.70
5846;DHT22;2949;50.778;7.094;2023-04-06T07:31:04;18.90;55.30
5846;DHT22;2949;50.778;7.094;2023-04-06T07:33:30;19.50;56.30
5846;DHT22;2949;50.778;7.094;2023-04-06T07:35:56;20.30;54.50
5846;DHT22;2949;50.778;7.094;2023-04-06T07:38:22;21.30;53.80
5846;DHT22;2949;50.778;7.094;2023-04-06T07:40:48;21.90;50.20
5846;DHT22;2949;50.778;7.094;2023-04-06T07:43:13;22.30;49.00
5846;DHT22;2949;50.778;7.094;2023-04-06T07:45:39;22.20;47.50
5846;DHT22;2949;50.778;7.094;2023-04-06T07:48:04;22.10;46.90
5846;DHT22;2949;50.778;7.094;2023-04-06T07:50:30;22.40;46.00
5846;DHT22;2949;50.778;7.094;2023-04-06T07:52:56;22.30;45.70
5846;DHT22;2949;50.778;7.094;2023-04-06T07:55:23;22.00;45.80
5846;DHT22;2949;50.778;7.094;2023-04-06T07:57:48;21.70;45.30
5846;DHT22;2949;50.778;7.094;2023-04-06T08:00:14;22.10;45.80
5846;DHT22;2949;50.778;7.094;2023-04-06T08:02:40;22.70;44.60
5846;DHT22;2949;50.778;7.094;2023-04-06T08:05:06;22.00;44.00
5846;DHT22;2949;50.778;7.094;2023-04-06T08:07:32;20.70;44.50
5846;DHT22;2949;50.778;7.094;2023-04-06T08:09:57;19.10;46.60
5846;DHT22;2949;50.778;7.094;2023-04-06T08:12:23;18.10;47.30
5846;DHT22;2949;50.778;7.094;2023-04-06T08:14:49;17.00;49.40
5846;DHT22;2949;50.778;7.094;2023-04-06T08:17:14;16.40;51.10
5846;DHT22;2949;50.778;7.094;2023-04-06T08:19:42;16.70;52.10
5846;DHT22;2949;50.778;7.094;2023-04-06T08:22:09;17.80;51.10
5846;DHT22;2949;50.778;7.094;2023-04-06T08:24:34;19.00;49.80
5846;DHT22;2949;50.778;7.094;2023-04-06T08:27:00;18.70;48.40
5846;DHT22;2949;50.778;7.094;2023-04-06T08:29:26;18.80;50.10
5846;DHT22;2949;50.778;7.094;2023-04-06T08:31:51;19.60;50.30
5846;DHT22;2949;50.778;7.094;2023-04-06T08:34:17;20.40;47.90
5846;DHT22;2949;50.778;7.094;2023-04-06T08:36:43;19.90;47.90
5846;DHT22;2949;50.778;7.094;2023-04-06T08:39:08;20.10;48.10
5846;DHT22;2949;50.778;7.094;2023-04-06T08:41:34;20.90;47.40
5846;DHT22;2949;50.778;7.094;2023-04-06T08:44:01;21.10;46.30
5846;DHT22;2949;50.778;7.094;2023-04-06T08:46:29;21.20;45.90
5846;DHT22;2949;50.778;7.094;2023-04-06T08:49:01;21.40;46.70
5846;DHT22;2949;50.778;7.094;2023-04-06T08:51:28;21.90;46.00
5846;DHT22;2949;50.778;7.094;2023-04-06T08:53:56;22.10;45.30
5846;DHT22;2949;50.778;7.094;2023-04-06T08:56:23;22.20;44.40
5846;DHT22;2949;50.778;7.094;2023-04-06T08:58:49;21.60;44.80
5846;DHT22;2949;50.778;7.094;2023-04-06T09:01:17;20.60;45.80
5846;DHT22;2949;50.778;7.094;2023-04-06T09:03:45;20.10;46.30
5846;DHT22;2949;50.778;7.094;2023-04-06T09:06:13;19.60;47.20
5846;DHT22;2949;50.778;7.094;2023-04-06T09:08:39;19.90;47.90
5846;DHT22;2949;50.778;7.094;2023-04-06T09:11:06;20.40;47.60
5846;DHT22;2949;50.778;7.094;2023-04-06T09:13:43;20.90;46.60
5846;DHT22;2949;50.778;7.094;2023-04-06T09:16:09;21.30;46.70
5846;DHT22;2949;50.778;7.094;2023-04-06T09:18:35;21.80;46.20
5846;DHT22;2949;50.778;7.094;2023-04-06T09:21:05;22.10;45.70
5846;DHT22;2949;50.778;7.094;2023-04-06T09:23:31;22.40;44.50
5846;DHT22;2949;50.778;7.094;2023-04-06T09:26:10;22.30;45.10
5846;DHT22;2949;50.778;7.094;2023-04-06T09:28:50;22.20;45.70
5846;DHT22;2949;50.778;7.094;2023-04-06T09:31:27;22.30;47.10
5846;DHT22;2949;50.778;7.094;2023-04-06T09:33:53;23.50;44.70
5846;DHT22;2949;50.778;7.094;2023-04-06T09:36:28;24.10;43.70
5846;DHT22;2949;50.778;7.094;2023-04-06T09:39:02;24.10;43.40
5846;DHT22;2949;50.778;7.094;2023-04-06T09:41:30;24.10;42.60
5846;DHT22;2949;50.778;7.094;2023-04-06T09:44:10;23.70;42.60
5846;DHT22;2949;50.778;7.094;2023-04-06T09:46:38;22.80;44.90
5846;DHT22;2949;50.778;7.094;2023-04-06T09:49:05;22.40;44.70
5846;DHT22;2949;50.778;7.094;2023-04-06T09:51:38;22.30;44.90
5846;DHT22;2949;50.778;7.094;2023-04-06T09:54:04;22.50;43.40
5846;DHT22;2949;50.778;7.094;2023-04-06T09:56:33;22.10;44.10
5846;DHT22;2949;50.778;7.094;2023-04-06T09:59:05;21.80;44.60
5846;DHT22;2949;50.778;7.094;2023-04-06T10:01:33;21.50;45.90
5846;DHT22;2949;50.778;7.094;2023-04-06T10:04:13;21.50;48.10
5846;DHT22;2949;50.778;7.094;2023-04-06T10:06:44;21.30;46.80
5846;DHT22;2949;50.778;7.094;2023-04-06T10:09:13;21.10;46.80
5846;DHT22;2949;50.778;7.094;2023-04-06T10:11:39;21.00;44.70
5846;DHT22;2949;50.778;7.094;2023-04-06T10:14:06;20.70;44.00
5846;DHT22;2949;50.778;7.094;2023-04-06T10:16:32;21.10;43.90
5846;DHT22;2949;50.778;7.094;2023-04-06T10:19:05;21.00;43.60
5846;DHT22;2949;50.778;7.094;2023-04-06T10:21:32;21.00;42.90
5846;DHT22;2949;50.778;7.094;2023-04-06T10:24:00;20.90;44.20
5846;DHT22;2949;50.778;7.094;2023-04-06T10:26:27;20.90;44.10
5846;DHT22;2949;50.778;7.094;2023-04-06T10:28:52;20.90;43.90
5846;DHT22;2949;50.778;7.094;2023-04-06T10:31:26;21.30;43.80
5846;DHT22;2949;50.778;7.094;2023-04-06T10:33:58;21.40;44.30
5846;DHT22;2949;50.778;7.094;2023-04-06T10:36:27;21.40;42.10
5846;DHT22;2949;50.778;7.094;2023-04-06T10:38:56;21.00;43.20
5846;DHT22;2949;50.778;7.094;2023-04-06T10:41:22;20.20;44.20
5846;DHT22;2949;50.778;7.094;2023-04-06T10:43:55;19.90;44.00
5846;DHT22;2949;50.778;7.094;2023-04-06T10:46:25;19.80;44.30
5846;DHT22;2949;50.778;7.094;2023-04-06T10:48:51;19.30;45.20
5846;DHT22;2949;50.778;7.094;2023-04-06T10:51:18;19.10;45.90
5846;DHT22;2949;50.778;7.094;2023-04-06T10:53:48;18.70;47.20
5846;DHT22;2949;50.778;7.094;2023-04-06T10:56:17;18.80;47.30
5846;DHT22;2949;50.778;7.094;2023-04-06T10:58:52;19.00;47.50
5846;DHT22;2949;50.778;7.094;2023-04-06T11:01:20;19.00;48.10
5846;DHT22;2949;50.778;7.094;2023-04-06T11:03:51;18.90;47.20
5846;DHT22;2949;50.778;7.094;2023-04-06T11:06:28;19.00;45.80
5846;DHT22;2949;50.778;7.094;2023-04-06T11:08:57;18.70;46.90
5846;DHT22;2949;50.778;7.094;2023-04-06T11:11:24;18.20;47.60
5846;DHT22;2949;50.778;7.094;2023-04-06T11:13:56;18.10;49.20
5846;DHT22;2949;50.778;7.094;2023-04-06T11:16:23;17.90;49.00
5846;DHT22;2949;50.778;7.094;2023-04-06T11:18:53;18.00;49.00
5846;DHT22;2949;50.778;7.094;2023-04-06T11:21:31;18.20;47.80
5846;DHT22;2949;50.778;7.094;2023-04-06T11:26:46;17.80;48.20
5846;DHT22;2949;50.778;7.094;2023-04-06T11:29:15;17.80;47.40
5846;DHT22;2949;50.778;7.094;2023-04-06T11:31:52;17.60;49.60
5846;DHT22;2949;50.778;7.094;2023-04-06T11:34:20;17.80;48.60
5846;DHT22;2949;50.778;7.094;2023-04-06T11:36:47;17.70;48.70
5846;DHT22;2949;50.778;7.094;2023-04-06T11:39:18;17.80;47.70
5846;DHT22;2949;50.778;7.094;2023-04-06T11:41:48;17.70;48.50
5846;DHT22;2949;50.778;7.094;2023-04-06T11:44:28;17.50;48.90
5846;DHT22;2949;50.778;7.094;2023-04-06T11:46:57;17.20;49.80
5846;DHT22;2949;50.778;7.094;2023-04-06T11:49:27;17.10;50.20
5846;DHT22;2949;50.778;7.094;2023-04-06T11:51:52;16.90;50.60
5846;DHT22;2949;50.778;7.094;2023-04-06T11:54:18;16.70;51.00
5846;DHT22;2949;50.778;7.094;2023-04-06T11:56:54;16.80;51.80
5846;DHT22;2949;50.778;7.094;2023-04-06T11:59:20;16.80;51.60
5846;DHT22;2949;50.778;7.094;2023-04-06T12:01:47;16.70;51.00
5846;DHT22;2949;50.778;7.094;2023-04-06T12:04:12;16.70;52.00
5846;DHT22;2949;50.778;7.094;2023-04-06T12:06:38;17.00;52.20
5846;DHT22;2949;50.778;7.094;2023-04-06T12:09:03;17.00;52.00
5846;DHT22;2949;50.778;7.094;2023-04-06T12:11:29;17.20;51.50
5846;DHT22;2949;50.778;7.094;2023-04-06T12:13:55;16.90;50.60
5846;DHT22;2949;50.778;7.094;2023-04-06T12:16:20;16.90;50.80
5846;DHT22;2949;50.778;7.094;2023-04-06T12:18:46;16.90;51.00
5846;DHT22;2949;50.778;7.094;2023-04-06T12:21:11;17.10;51.50
5846;DHT22;2949;50.778;7.094;2023-04-06T12:23:37;17.30;51.20
5846;DHT22;2949;50.778;7.094;2023-04-06T12:26:03;17.20;50.60
5846;DHT22;2949;50.778;7.094;2023-04-06T12:28:28;17.00;51.70
5846;DHT22;2949;50.778;7.094;2023-04-06T12:30:54;17.20;51.50
5846;DHT22;2949;50.778;7.094;2023-04-06T12:33:20;17.50;51.50
5846;DHT22;2949;50.778;7.094;2023-04-06T12:35:46;17.60;50.10
5846;DHT22;2949;50.778;7.094;2023-04-06T12:38:12;17.70;50.70
5846;DHT22;2949;50.778;7.094;2023-04-06T12:40:38;17.70;49.00
5846;DHT22;2949;50.778;7.094;2023-04-06T12:43:04;17.60;49.40
5846;DHT22;2949;50.778;7.094;2023-04-06T12:45:33;17.40;51.10
5846;DHT22;2949;50.778;7.094;2023-04-06T12:47:58;17.40;50.70
5846;DHT22;2949;50.778;7.094;2023-04-06T12:50:24;17.60;48.20
5846;DHT22;2949;50.778;7.094;2023-04-06T12:52:51;17.60;49.20
5846;DHT22;2949;50.778;7.094;2023-04-06T12:55:17;17.40;51.00
5846;DHT22;2949;50.778;7.094;2023-04-06T12:57:43;17.40;49.40
5846;DHT22;2949;50.778;7.094;2023-04-06T13:00:08;17.40;49.60
5846;DHT22;2949;50.778;7.094;2023-04-06T13:02:34;17.20;49.70
5846;DHT22;2949;50.778;7.094;2023-04-06T13:05:01;17.00;49.90
5846;DHT22;2949;50.778;7.094;2023-04-06T13:07:26;16.70;49.90
5846;DHT22;2949;50.778;7.094;2023-04-06T13:09:52;16.60;50.20
5846;DHT22;2949;50.778;7.094;2023-04-06T13:12:18;16.60;49.20
5846;DHT22;2949;50.778;7.094;2023-04-06T13:14:43;16.50;51.30
5846;DHT22;2949;50.778;7.094;2023-04-06T13:17:09;16.20;52.50
5846;DHT22;2949;50.778;7.094;2023-04-06T13:19:35;16.10;54.30
5846;DHT22;2949;50.778;7.094;2023-04-06T13:22:01;16.10;53.70
5846;DHT22;2949;50.778;7.094;2023-04-06T13:24:28;15.90;53.30
5846;DHT22;2949;50.778;7.094;2023-04-06T13:26:53;15.70;53.50
5846;DHT22;2949;50.778;7.094;2023-04-06T13:29:19;15.60;54.10
5846;DHT22;2949;50.778;7.094;2023-04-06T13:31:44;15.40;54.60
5846;DHT22;2949;50.778;7.094;2023-04-06T13:34:10;15.20;54.30
5846;DHT22;2949;50.778;7.094;2023-04-06T13:36:36;15.00;53.90
5846;DHT22;2949;50.778;7.094;2023-04-06T13:39:01;14.90;54.70
5846;DHT22;2949;50.778;7.094;2023-04-06T13:41:27;14.90;55.60
5846;DHT22;2949;50.778;7.094;2023-04-06T13:43:53;14.70;55.20
5846;DHT22;2949;50.778;7.094;2023-04-06T13:46:18;14.70;56.20
5846;DHT22;2949;50.778;7.094;2023-04-06T13:48:44;14.40;57.00
5846;DHT22;2949;50.778;7.094;2023-04-06T13:51:11;14.10;57.40
5846;DHT22;2949;50.778;7.094;2023-04-06T13:53:36;13.80;59.80
5846;DHT22;2949;50.778;7.094;2023-04-06T13:56:02;13.50;61.20
5846;DHT22;2949;50.778;7.094;2023-04-06T13:58:28;13.30;62.70
5846;DHT22;2949;50.778;7.094;2023-04-06T14:00:53;13.00;64.50
5846;DHT22;2949;50.778;7.094;2023-04-06T14:03:19;13.00;64.10
5846;DHT22;2949;50.778;7.094;2023-04-06T14:05:45;13.00;65.10
5846;DHT22;2949;50.778;7.094;2023-04-06T14:08:11;12.90;66.00
5846;DHT22;2949;50.778;7.094;2023-04-06T14:10:40;12.80;67.60
5846;DHT22;2949;50.778;7.094;2023-04-06T14:13:07;12.90;67.10
5846;DHT22;2949;50.778;7.094;2023-04-06T14:15:33;12.90;67.90
5846;DHT22;2949;50.778;7.094;2023-04-06T14:17:59;12.90;71.00
5846;DHT22;2949;50.778;7.094;2023-04-06T14:20:25;12.80;70.90
5846;DHT22;2949;50.778;7.094;2023-04-06T14:22:51;12.80;73.00
5846;DHT22;2949;50.778;7.094;2023-04-06T14:25:18;12.80;74.50
5846;DHT22;2949;50.778;7.094;2023-04-06T14:27:43;12.80;76.30
5846;DHT22;2949;50.778;7.094;2023-04-06T14:30:10;12.80;76.90
5846;DHT22;2949;50.778;7.094;2023-04-06T14:32:36;12.90;77.20
5846;DHT22;2949;50.778;7.094;2023-04-06T14:35:03;12.80;76.70
5846;DHT22;2949;50.778;7.094;2023-04-06T14:37:29;12.80;77.60
5846;DHT22;2949;50.778;7.094;2023-04-06T14:39:54;12.70;80.50
5846;DHT22;2949;50.778;7.094;2023-04-06T14:42:20;12.60;81.70
5846;DHT22;2949;50.778;7.094;2023-04-06T14:44:45;12.50;81.10
5846;DHT22;2949;50.778;7.094;2023-04-06T14:47:11;12.40;81.90
5846;DHT22;2949;50.778;7.094;2023-04-06T14:49:39;12.30;82.70
5846;DHT22;2949;50.778;7.094;2023-04-06T14:52:05;12.10;85.60
5846;DHT22;2949;50.778;7.094;2023-04-06T14:54:31;11.90;87.10
5846;DHT22;2949;50.778;7.094;2023-04-06T14:56:56;11.90;90.80
5846;DHT22;2949;50.778;7.094;2023-04-06T14:59:24;11.80;91.40
5846;DHT22;2949;50.778;7.094;2023-04-06T15:01:49;11.70;92.00
5846;DHT22;2949;50.778;7.094;2023-04-06T15:04:16;11.70;93.00
5846;DHT22;2949;50.778;7.094;2023-04-06T15:06:41;11.70;93.80
5846;DHT22;2949;50.778;7.094;2023-04-06T15:09:07;11.70;94.20
5846;DHT22;2949;50.778;7.094;2023-04-06T15:11:32;11.60;95.90
5846;DHT22;2949;50.778;7.094;2023-04-06T15:13:59;11.50;96.50
5846;DHT22;2949;50.778;7.094;2023-04-06T15:16:25;11.50;96.80
5846;DHT22;2949;50.778;7.094;2023-04-06T15:18:51;11.40;97.20
5846;DHT22;2949;50.778;7.094;2023-04-06T15:21:16;11.40;97.80
5846;DHT22;2949;50.778;7.094;2023-04-06T15:23:42;11.40;98.50
5846;DHT22;2949;50.778;7.094;2023-04-06T15:26:08;11.40;99.10
5846;DHT22;2949;50.778;7.094;2023-04-06T15:28:34;11.30;99.90
5846;DHT22;2949;50.778;7.094;2023-04-06T15:30:59;11.30;99.90
5846;DHT22;2949;50.778;7.094;2023-04-06T15:33:31;11.30;99.90
5846;DHT22;2949;50.778;7.094;2023-04-06T15:38:22;11.30;99.90
5846;DHT22;2949;50.778;7.094;2023-04-06T15:40:48;11.30;99.90
5846;DHT22;2949;50.778;7.094;2023-04-06T15:43:14;11.20;99.90
5846;DHT22;2949;50.778;7.094;2023-04-06T15:45:40;11.20;99.90
5846;DHT22;2949;50.778;7.094;2023-04-06T15:48:07;11.10;99.90
5846;DHT22;2949;50.778;7.094;2023-04-06T15:50:33;11.00;99.90
5846;DHT22;2949;50.778;7.094;2023-04-06T15:52:59;11.00;99.90
5846;DHT22;2949;50.778;7.094;2023-04-06T15:55:25;10.90;99.90
5846;DHT22;2949;50.778;7.094;2023-04-06T15:57:50;10.80;99.90
5846;DHT22;2949;50.778;7.094;2023-04-06T16:00:16;10.70;99.90
5846;DHT22;2949;50.778;7.094;2023-04-06T16:02:42;10.60;99.90
5846;DHT22;2949;50.778;7.094;2023-04-06T16:05:07;10.50;99.90
5846;DHT22;2949;50.778;7.094;2023-04-06T16:07:33;10.30;99.90